Plaisance, Maurice

11:48 MUT le 01 août 2014 (GMT +0400)
Mauritius International (FIMP) Alt. 187 ft | 20.43 °S, 57.68 °E | Change Station

Current weather conditions updated 48 minutes ago

Mostly Cloudy
Nuageux
75 ° F
Paraît 75 ° F
N
13
Vent Variable Vent de SE

Aujourd’hui il est prévu de faire pratiquement la même température qu’hier.

Aujourd'hui
Haut(e) -- | Bas -- ° F
--% Risque de précip.
Hier
Haut(e) -- | Bas -- ° F
Precip. -- pouce
6:39 AM 5:51 PM
Lune montante, 24% visible
Pression 30.18 pouce
Visibilité 6.2 Miles terrestres
Nuages Nuages épars 1600 ft
Nuageux 5000 ft
Point de rosée 63 ° F
Humidité 65%
Précipitations 0.00 pouce
Profondeur de la couche neigeuse Non disponible.
UV 5 sur 12
Pollen Non disponible.
Qualité de l'air Non disponible.
Flu Activity Non disponible.
METAR FIMP 010700Z 13011KT 9999 SCT016 BKN050 24/17 Q1022

More Conditions Fewer Conditions

Pression 30.18 pouce
Visibilité 6.2 Miles terrestres
Nuages Nuages épars 1600 ft
Nuageux 5000 ft
Point de rosée 63 ° F
Humidité 65%
Précipitations 0.00 pouce
Profondeur de la couche neigeuse Non disponible.
UV 5 sur 12
Pollen Non disponible.
Qualité de l'air Non disponible.
Flu Activity Non disponible.
METAR FIMP 010700Z 13011KT 9999 SCT016 BKN050 24/17 Q1022

More Conditions Fewer Conditions

10-Day Weather Forecast

Almanac

Astronomie

Aug. 01, 2014 Lever Coucher
Temps réel 06:39 MUT 17:51 MUT
Crépuscule civil 06:16 MUT 18:14 MUT
Crépuscule nautique 05:49 MUT 18:41 MUT
Crépuscule astronomique 05:23 MUT 19:07 MUT
Lune 09:48 MUT 22:24 MUT
Durée de lumière visible 11h 58m
Longueur du jour
11h 11m
Tomorrow will be 0m 50s longer.
Lune montante, 24% of the Moon is Illuminated
Aujourd'hui
Lune montante
août 3
Premier quartier
août 10
Pleine lune
août 17
Dernier quartier
août 25
Nouveau

Les extrêmes de température d’hier

Country Highs Country Lows

Community

WunderPhotos

Upload Photos

1,739,522 Photos téléchargées !

Nearby

Qualité de l'air

Not available.

Épaisseur de neige

Not available.

Activité sismique

Ville Distance Mag. Time & Date
No recent earthquake activity has been reported nearby.
Minimum magnitude displayed is 2.5.

Températures des eaux côtières

Lieu Température
Aucun rapport de station

Stations météo à proximité

Emplacement de la station Température indice de chaleur Point de rosée Humidité Vent Precip. Alt. Mise à jour Type
Maufox Station, Quatre Bornes 69.5 ° F - 64 ° F 84% SE  à  2.0 mph 0.00 pouce / hr 1050 ft 11:45 AM MUT Normal
Plaine Verte 78.8 ° F 80 ° F 61 ° F 54% SSE  à  6.1 mph 0.00 pouce / hr 154 ft 11:44 AM MUT Normal

Show More Stations Show Fewer Stations